createdAt,value
2022-08-09T00:00:56.972Z,100.00
2022-08-09T00:04:06.192Z,99.15
2022-08-09T00:06:18.424Z,96.88
2022-08-09T00:08:51.867Z,96.37
2022-08-09T00:11:25.078Z,95.92
2022-08-09T00:13:55.613Z,95.21
2022-08-09T00:16:26.429Z,95.01
2022-08-09T00:19:09.334Z,94.89
2022-08-09T00:21:38.764Z,94.76
2022-08-09T00:24:22.773Z,94.68
2022-08-09T00:26:51.491Z,95.17
2022-08-09T00:30:10.271Z,94.89
2022-08-09T00:32:06.857Z,94.61
2022-08-09T00:34:33.923Z,94.38
2022-08-09T00:37:01.182Z,93.80
2022-08-09T00:40:12.956Z,93.40
2022-08-09T00:44:15.771Z,92.72
2022-08-09T00:45:14.843Z,92.53
2022-08-09T00:47:44.114Z,92.83
2022-08-09T00:50:14.570Z,93.05
2022-08-09T00:52:42.306Z,93.04
2022-08-09T00:55:10.241Z,93.21
2022-08-09T00:57:37.880Z,93.85
2022-08-09T01:00:22.068Z,93.95
2022-08-09T01:03:09.292Z,94.88
2022-08-09T01:06:18.018Z,94.88
2022-08-09T01:09:21.037Z,95.61
2022-08-09T01:12:04.592Z,96.42
2022-08-09T01:14:45.164Z,97.66
2022-08-09T01:17:30.711Z,98.46
2022-08-09T01:20:04.539Z,98.72
2022-08-09T01:22:54.821Z,99.15
2022-08-09T01:25:51.250Z,100.00
2022-08-09T01:28:22.260Z,100.00
2022-08-09T01:30:53.157Z,100.00
2022-08-09T01:33:25.991Z,100.00
2022-08-09T01:35:59.244Z,100.00
2022-08-09T01:38:30.072Z,100.00
2022-08-09T01:41:12.390Z,100.00
2022-08-09T01:43:50.385Z,100.00
2022-08-09T01:46:25.153Z,100.00
2022-08-09T01:48:59.696Z,100.00
2022-08-09T01:51:32.279Z,100.00
2022-08-09T01:54:02.433Z,100.00
2022-08-09T01:56:34.799Z,100.00
2022-08-09T01:59:09.426Z,100.00
2022-08-09T02:01:58.148Z,100.00
2022-08-09T02:04:28.539Z,100.00
2022-08-09T02:08:00.119Z,100.00
2022-08-09T02:10:12.635Z,100.00
2022-08-09T02:12:41.515Z,100.00
2022-08-09T02:15:11.704Z,100.00
2022-08-09T02:18:00.625Z,100.00
2022-08-09T02:20:44.085Z,100.00
2022-08-09T02:23:39.845Z,100.00
2022-08-09T02:26:26.677Z,100.00
2022-08-09T02:29:00.549Z,100.00
2022-08-09T02:31:34.169Z,100.00
2022-08-09T02:34:13.188Z,99.32
2022-08-09T02:36:44.643Z,98.60
2022-08-09T02:39:20.289Z,98.35
2022-08-09T02:42:05.758Z,97.64
2022-08-09T02:44:44.831Z,97.03
2022-08-09T02:47:14.169Z,97.06
2022-08-09T02:49:48.131Z,96.54
2022-08-09T02:52:38.035Z,95.98
2022-08-09T02:55:20.083Z,94.94
2022-08-09T02:58:32.889Z,94.05
2022-08-09T03:00:58.218Z,93.76
2022-08-09T03:04:12.513Z,92.67
2022-08-09T03:06:16.022Z,92.23
2022-08-09T03:08:48.376Z,91.27
2022-08-09T03:11:30.210Z,91.17
2022-08-09T03:14:07.992Z,90.81
2022-08-09T03:16:41.615Z,89.51
2022-08-09T03:19:14.073Z,88.22
2022-08-09T03:21:48.531Z,87.19
2022-08-09T03:24:31.266Z,86.33
2022-08-09T03:27:09.684Z,85.86
2022-08-09T03:29:58.252Z,84.58
2022-08-09T03:32:31.986Z,83.81
2022-08-09T03:35:00.821Z,80.23
2022-08-09T03:37:55.959Z,79.54
2022-08-09T03:40:18.161Z,79.27
2022-08-09T03:42:46.667Z,80.28
2022-08-09T03:45:15.393Z,80.98
2022-08-09T03:47:46.645Z,80.08
2022-08-09T03:50:18.801Z,79.74
2022-08-09T03:53:01.307Z,77.66
2022-08-09T03:55:36.068Z,75.68
2022-08-09T03:58:14.924Z,73.97
2022-08-09T04:00:45.258Z,73.50
2022-08-09T04:03:19.649Z,73.80
2022-08-09T04:06:04.414Z,74.51
2022-08-09T04:08:33.292Z,74.58
2022-08-09T04:11:01.723Z,74.32
2022-08-09T04:13:45.116Z,75.21
2022-08-09T04:16:20.257Z,75.15
2022-08-09T04:18:49.253Z,74.55
2022-08-09T04:21:19.299Z,74.53
2022-08-09T04:23:53.959Z,73.89
2022-08-09T04:26:37.770Z,73.62
2022-08-09T04:29:10.955Z,74.16
2022-08-09T04:31:47.241Z,74.76
2022-08-09T04:34:18.735Z,75.23
2022-08-09T04:36:50.205Z,76.17
2022-08-09T04:39:17.756Z,77.55
2022-08-09T04:41:44.834Z,78.46
2022-08-09T04:44:14.467Z,78.10
2022-08-09T04:46:59.260Z,78.31
2022-08-09T04:49:52.295Z,78.46
2022-08-09T04:52:32.529Z,78.61
2022-08-09T04:55:01.633Z,78.74
2022-08-09T04:57:54.189Z,78.31
2022-08-09T05:00:19.880Z,77.89
2022-08-09T05:02:48.755Z,77.59
2022-08-09T05:05:32.074Z,77.49
2022-08-09T05:08:07.751Z,76.44
2022-08-09T05:10:36.804Z,75.44
2022-08-09T05:13:04.310Z,74.16
2022-08-09T05:15:39.370Z,72.99
2022-08-09T05:18:39.414Z,70.27
2022-08-09T05:21:02.815Z,68.16
2022-08-09T05:23:54.426Z,67.34
2022-08-09T05:26:37.365Z,67.67
2022-08-09T05:29:17.432Z,68.05
2022-08-09T05:31:57.380Z,66.87
2022-08-09T05:34:32.124Z,64.79
2022-08-09T05:37:06.632Z,64.27
2022-08-09T05:39:42.910Z,63.91
2022-08-09T05:42:20.555Z,63.61
2022-08-09T05:44:51.664Z,64.19
2022-08-09T05:47:27.264Z,64.43
2022-08-09T05:50:23.498Z,65.42
2022-08-09T05:52:52.306Z,65.77
2022-08-09T05:55:21.994Z,66.10
2022-08-09T05:57:57.563Z,66.61
2022-08-09T06:00:29.084Z,67.31
2022-08-09T06:02:58.351Z,67.35
2022-08-09T06:05:30.676Z,68.08
2022-08-09T06:08:19.571Z,68.94
2022-08-09T06:10:56.159Z,70.11
2022-08-09T06:13:24.693Z,69.75
2022-08-09T06:15:53.011Z,70.53
2022-08-09T06:18:25.371Z,71.10
2022-08-09T06:20:58.107Z,71.51
2022-08-09T06:23:57.271Z,71.02
2022-08-09T06:26:20.474Z,69.63
2022-08-09T06:28:59.544Z,67.81
2022-08-09T06:31:31.310Z,67.77
2022-08-09T06:34:07.466Z,66.84
2022-08-09T06:36:34.799Z,66.82
2022-08-09T06:39:02.705Z,67.27
2022-08-09T06:42:07.514Z,67.60
2022-08-09T06:44:25.669Z,67.82
2022-08-09T06:46:55.273Z,68.22
2022-08-09T06:49:44.752Z,68.67
2022-08-09T06:52:15.584Z,69.18
2022-08-09T06:54:43.668Z,70.39
2022-08-09T06:57:12.166Z,70.68
2022-08-09T07:00:49.649Z,70.84
2022-08-09T07:02:32.054Z,71.20
2022-08-09T07:05:00.489Z,71.88
2022-08-09T07:08:00.054Z,72.63
2022-08-09T07:10:29.608Z,72.66
2022-08-09T07:12:59.024Z,71.93
2022-08-09T07:16:36.199Z,71.86
2022-08-09T07:18:14.997Z,71.88
2022-08-09T07:20:43.741Z,72.68
2022-08-09T07:23:18.951Z,71.23
2022-08-09T07:25:52.568Z,71.95
2022-08-09T07:28:30.873Z,72.13
2022-08-09T07:31:04.895Z,69.45
2022-08-09T07:33:52.821Z,69.38
2022-08-09T07:36:20.754Z,68.91
2022-08-09T07:38:56.813Z,67.04
2022-08-09T07:41:27.678Z,66.35
2022-08-09T07:44:06.969Z,64.53
2022-08-09T07:46:37.405Z,64.40
2022-08-09T07:49:06.227Z,62.86
2022-08-09T07:52:05.973Z,61.95
2022-08-09T07:54:27.862Z,63.52
2022-08-09T07:56:58.493Z,62.23
2022-08-09T07:59:34.310Z,60.85
2022-08-09T08:02:19.417Z,60.61
2022-08-09T08:04:48.507Z,61.00
2022-08-09T08:08:42.623Z,59.75
2022-08-09T08:10:08.655Z,59.76
2022-08-09T08:12:43.279Z,58.19
2022-08-09T08:15:14.499Z,58.10
2022-08-09T08:17:53.722Z,59.11
2022-08-09T08:20:29.505Z,60.12
2022-08-09T08:23:16.182Z,60.77
2022-08-09T08:25:48.292Z,57.65
2022-08-09T08:28:18.279Z,57.07
2022-08-09T08:30:53.850Z,55.76
2022-08-09T08:33:24.230Z,55.48
2022-08-09T08:36:00.480Z,55.04
2022-08-09T08:38:30.966Z,54.71
2022-08-09T08:40:58.864Z,54.21
2022-08-09T08:43:27.816Z,53.40
2022-08-09T08:46:17.117Z,52.53
2022-08-09T08:48:51.198Z,52.58
2022-08-09T08:51:19.322Z,53.13
2022-08-09T08:54:03.700Z,54.64
2022-08-09T08:56:36.457Z,54.29
2022-08-09T08:59:19.699Z,53.39
2022-08-09T09:01:53.019Z,53.29
2022-08-09T09:04:41.612Z,52.57
2022-08-09T09:07:16.020Z,51.95
2022-08-09T09:10:01.699Z,51.79
2022-08-09T09:12:35.427Z,52.04
2022-08-09T09:15:05.766Z,52.41
2022-08-09T09:17:48.913Z,53.68
2022-08-09T09:20:21.472Z,53.67
2022-08-09T09:23:01.917Z,53.47
2022-08-09T09:26:01.355Z,52.82
2022-08-09T09:28:39.278Z,51.55
2022-08-09T09:32:04.659Z,51.68
2022-08-09T09:34:14.215Z,51.46
2022-08-09T09:36:46.984Z,51.71
2022-08-09T09:39:42.894Z,50.82
2022-08-09T09:42:25.652Z,50.45
2022-08-09T09:45:08.108Z,50.42
2022-08-09T09:47:40.774Z,49.81
2022-08-09T09:50:23.193Z,50.13
2022-08-09T09:52:56.137Z,50.25
2022-08-09T09:55:32.281Z,50.52
2022-08-09T09:58:17.074Z,50.60
2022-08-09T10:00:58.526Z,50.40
2022-08-09T10:03:57.097Z,50.72
2022-08-09T10:06:32.178Z,51.00
2022-08-09T10:09:11.968Z,51.73
2022-08-09T10:12:14.614Z,52.44
2022-08-09T10:14:48.981Z,52.44
2022-08-09T10:17:39.111Z,51.59
2022-08-09T10:20:35.694Z,51.56
2022-08-09T10:23:22.035Z,51.75
2022-08-09T10:26:07.839Z,52.61
2022-08-09T10:28:40.032Z,52.92
2022-08-09T10:34:08.566Z,51.62
2022-08-09T10:36:50.270Z,52.72
2022-08-09T10:39:23.440Z,52.01
2022-08-09T10:41:56.040Z,50.31
2022-08-09T10:44:26.637Z,50.83
2022-08-09T10:48:12.620Z,49.33
2022-08-09T10:50:30.848Z,48.83
2022-08-09T10:53:17.320Z,48.59
2022-08-09T10:55:58.477Z,49.05
2022-08-09T10:58:37.069Z,48.56
2022-08-09T11:03:02.144Z,48.97
2022-08-09T11:04:27.995Z,49.11
2022-08-09T11:07:00.339Z,50.29
2022-08-09T11:09:48.767Z,51.87
2022-08-09T11:12:17.634Z,51.57
2022-08-09T11:14:55.929Z,51.27
2022-08-09T11:17:27.462Z,51.29
2022-08-09T11:20:17.959Z,50.14
2022-08-09T11:22:55.583Z,48.44
2022-08-09T11:25:45.647Z,47.39
2022-08-09T11:28:34.658Z,46.98
2022-08-09T11:31:43.195Z,46.73
2022-08-09T11:34:44.012Z,47.17
2022-08-09T11:37:25.868Z,47.03
2022-08-09T11:40:07.275Z,48.83
2022-08-09T11:42:49.040Z,49.52
2022-08-09T11:45:37.607Z,49.74
2022-08-09T11:48:25.329Z,49.86
2022-08-09T11:53:02.090Z,51.23
2022-08-09T11:54:13.807Z,52.21
2022-08-09T11:56:48.269Z,50.46
2022-08-09T11:59:30.134Z,49.33
2022-08-09T12:02:17.427Z,48.48
2022-08-09T12:04:54.716Z,48.81
2022-08-09T12:07:41.405Z,47.88
2022-08-09T12:10:14.387Z,47.75
2022-08-09T12:12:59.230Z,47.35
2022-08-09T12:15:50.067Z,47.66
2022-08-09T12:18:30.310Z,48.93
2022-08-09T12:21:03.110Z,49.48
2022-08-09T12:23:57.916Z,49.79
2022-08-09T12:26:25.774Z,49.31
2022-08-09T12:29:12.151Z,48.90
2022-08-09T12:31:58.943Z,49.24
2022-08-09T12:34:38.086Z,48.48
2022-08-09T12:37:23.839Z,48.49
2022-08-09T12:40:05.700Z,49.13
2022-08-09T12:42:34.618Z,49.10
2022-08-09T12:45:07.127Z,48.66
2022-08-09T12:47:52.778Z,49.58
2022-08-09T12:50:23.697Z,49.46
2022-08-09T12:53:18.381Z,50.09
2022-08-09T12:56:15.819Z,49.29
2022-08-09T12:58:27.648Z,48.48
2022-08-09T13:00:57.646Z,48.31
2022-08-09T13:03:58.405Z,48.04
2022-08-09T13:06:35.793Z,48.93
2022-08-09T13:09:13.897Z,49.88
2022-08-09T13:11:44.242Z,49.19
2022-08-09T13:14:41.856Z,50.27
2022-08-09T13:17:05.390Z,49.51
2022-08-09T13:20:09.096Z,49.57
2022-08-09T13:22:35.957Z,49.78
2022-08-09T13:25:07.623Z,49.73
2022-08-09T13:27:40.100Z,49.80
2022-08-09T13:30:50.130Z,49.73
2022-08-09T13:33:06.837Z,50.63
2022-08-09T13:36:37.916Z,51.05
2022-08-09T13:38:55.719Z,50.44
2022-08-09T13:41:50.973Z,50.53
2022-08-09T13:44:00.512Z,50.73
2022-08-09T13:47:17.861Z,51.00
2022-08-09T13:49:19.697Z,52.42
2022-08-09T13:52:01.102Z,52.23
2022-08-09T13:54:30.335Z,52.37
2022-08-09T13:56:57.919Z,52.14
2022-08-09T13:59:26.126Z,52.74
2022-08-09T14:02:14.123Z,52.99
2022-08-09T14:04:59.578Z,52.86
2022-08-09T14:07:30.185Z,53.06
2022-08-09T14:10:17.268Z,52.89
2022-08-09T14:12:56.863Z,52.30
2022-08-09T14:16:09.810Z,51.96
2022-08-09T14:18:20.018Z,51.14
2022-08-09T14:20:55.345Z,50.75
2022-08-09T14:23:40.372Z,50.67
2022-08-09T14:26:11.167Z,50.78
2022-08-09T14:28:38.618Z,50.64
2022-08-09T14:31:07.672Z,50.49
2022-08-09T14:33:38.260Z,50.91
2022-08-09T14:36:20.515Z,50.78
2022-08-09T14:38:51.219Z,50.90
2022-08-09T14:41:34.493Z,51.53
2022-08-09T14:44:11.091Z,51.65
2022-08-09T14:47:03.280Z,52.00
2022-08-09T14:49:26.861Z,52.29
2022-08-09T14:51:58.448Z,53.37
2022-08-09T14:54:28.418Z,53.86
2022-08-09T14:56:59.049Z,54.12
2022-08-09T14:59:28.654Z,54.50
2022-08-09T15:01:56.197Z,54.81
2022-08-09T15:04:23.963Z,54.64
2022-08-09T15:06:52.143Z,54.10
2022-08-09T15:10:03.114Z,54.09
2022-08-09T15:12:08.168Z,53.59
2022-08-09T15:14:38.313Z,52.73
2022-08-09T15:17:09.716Z,52.63
2022-08-09T15:19:37.153Z,53.01
2022-08-09T15:22:25.903Z,53.42
2022-08-09T15:24:54.489Z,53.47
2022-08-09T15:27:22.099Z,53.46
2022-08-09T15:30:57.625Z,53.58
2022-08-09T15:32:36.822Z,54.01
2022-08-09T15:35:40.423Z,54.03
2022-08-09T15:37:56.248Z,54.25
2022-08-09T15:40:25.317Z,54.50
2022-08-09T15:42:59.761Z,54.74
2022-08-09T15:45:29.381Z,55.17
2022-08-09T15:48:05.371Z,55.82
2022-08-09T15:50:33.947Z,56.17
2022-08-09T15:53:07.075Z,56.83
2022-08-09T15:56:04.556Z,57.07
2022-08-09T15:58:33.701Z,57.13
2022-08-09T16:01:01.747Z,57.16
2022-08-09T16:03:38.092Z,57.40
2022-08-09T16:06:07.835Z,57.63
2022-08-09T16:08:56.224Z,57.81
2022-08-09T16:11:23.313Z,58.12
2022-08-09T16:14:03.759Z,58.07
2022-08-09T16:16:37.261Z,58.47
2022-08-09T16:19:10.885Z,58.84
2022-08-09T16:21:42.788Z,59.35
2022-08-09T16:24:29.976Z,59.60
2022-08-09T16:27:02.506Z,59.79
2022-08-09T16:29:36.822Z,60.12
2022-08-09T16:32:18.212Z,60.37
2022-08-09T16:34:56.619Z,60.34
2022-08-09T16:37:54.449Z,60.86
2022-08-09T16:40:29.889Z,61.19
2022-08-09T16:43:03.132Z,61.39
2022-08-09T16:45:31.309Z,61.28
2022-08-09T16:48:41.088Z,61.03
2022-08-09T16:50:59.160Z,60.87
2022-08-09T16:53:34.473Z,61.13
2022-08-09T16:56:06.304Z,61.36
2022-08-09T16:58:39.668Z,61.68
2022-08-09T17:01:08.235Z,61.72
2022-08-09T17:03:36.502Z,61.92
2022-08-09T17:06:28.132Z,62.10
2022-08-09T17:08:59.958Z,62.21
2022-08-09T17:11:40.214Z,62.22
2022-08-09T17:14:26.139Z,62.60
2022-08-09T17:17:02.345Z,63.26
2022-08-09T17:19:46.571Z,63.37
2022-08-09T17:22:24.677Z,63.87
2022-08-09T17:25:03.240Z,64.62
2022-08-09T17:27:33.104Z,65.19
2022-08-09T17:30:04.739Z,65.55
2022-08-09T17:32:38.251Z,66.06
2022-08-09T17:35:12.094Z,66.68
2022-08-09T17:38:11.747Z,67.43
2022-08-09T17:40:29.877Z,67.89
2022-08-09T17:42:59.564Z,68.20
2022-08-09T17:45:56.845Z,68.91
2022-08-09T17:48:18.403Z,69.31
2022-08-09T17:50:59.419Z,69.50
2022-08-09T17:53:42.999Z,69.92
2022-08-09T17:56:18.251Z,71.11
2022-08-09T17:58:45.665Z,71.83
2022-08-09T18:01:22.600Z,72.31
2022-08-09T18:03:54.526Z,72.72
2022-08-09T18:06:32.348Z,73.27
2022-08-09T18:09:05.513Z,74.35
2022-08-09T18:12:04.855Z,74.49
2022-08-09T18:14:23.810Z,75.03
2022-08-09T18:16:52.963Z,75.35
2022-08-09T18:20:55.365Z,75.79
2022-08-09T18:22:13.306Z,76.72
2022-08-09T18:24:45.699Z,76.63
2022-08-09T18:27:18.859Z,77.19
2022-08-09T18:30:42.346Z,77.85
2022-08-09T18:32:53.969Z,78.08
2022-08-09T18:35:58.630Z,78.43
2022-08-09T18:38:14.429Z,79.55
2022-08-09T18:40:48.890Z,79.32
2022-08-09T18:43:17.662Z,80.45
2022-08-09T18:46:50.534Z,80.69
2022-08-09T18:48:33.807Z,81.20
2022-08-09T18:51:02.887Z,81.29
2022-08-09T18:54:00.513Z,81.82
2022-08-09T18:56:28.215Z,82.10
2022-08-09T18:58:57.034Z,82.63
2022-08-09T19:01:25.847Z,82.70
2022-08-09T19:04:06.196Z,82.61
2022-08-09T19:06:38.621Z,82.93
2022-08-09T19:09:07.432Z,83.41
2022-08-09T19:11:37.586Z,83.58
2022-08-09T19:14:07.165Z,83.91
2022-08-09T19:16:36.606Z,84.25
2022-08-09T19:19:25.179Z,84.83
2022-08-09T19:22:04.720Z,85.14
2022-08-09T19:24:39.292Z,85.67
2022-08-09T19:27:22.259Z,86.19
2022-08-09T19:30:21.044Z,86.56
2022-08-09T19:32:37.335Z,86.99
2022-08-09T19:35:05.572Z,87.09
2022-08-09T19:37:54.526Z,87.53
2022-08-09T19:40:21.466Z,88.17
2022-08-09T19:42:49.546Z,88.85
2022-08-09T19:45:17.300Z,88.91
2022-08-09T19:47:45.217Z,89.10
2022-08-09T19:50:50.717Z,88.86
2022-08-09T19:53:02.546Z,89.04
2022-08-09T19:56:01.825Z,88.75
2022-08-09T19:58:29.594Z,89.32
2022-08-09T20:00:58.402Z,89.12
2022-08-09T20:04:09.708Z,89.79
2022-08-09T20:06:23.807Z,89.56
2022-08-09T20:08:57.598Z,89.53
2022-08-09T20:11:42.861Z,90.16
2022-08-09T20:14:15.358Z,89.81
2022-08-09T20:16:53.391Z,90.69
2022-08-09T20:19:47.825Z,90.72
2022-08-09T20:22:14.671Z,90.74
2022-08-09T20:24:54.156Z,90.70
2022-08-09T20:27:22.971Z,91.07
2022-08-09T20:29:50.334Z,90.99
2022-08-09T20:32:33.070Z,91.32
2022-08-09T20:35:02.137Z,91.96
2022-08-09T20:38:18.463Z,91.70
2022-08-09T20:40:26.409Z,92.11
2022-08-09T20:43:00.231Z,92.05
2022-08-09T20:45:59.169Z,92.07
2022-08-09T20:48:31.294Z,92.00
2022-08-09T20:51:01.010Z,91.62
2022-08-09T20:53:36.347Z,91.18
2022-08-09T20:56:20.544Z,90.85
2022-08-09T20:58:58.132Z,91.08
2022-08-09T21:01:35.376Z,91.42
2022-08-09T21:05:57.316Z,91.71
2022-08-09T21:07:12.375Z,91.98
2022-08-09T21:09:56.769Z,92.51
2022-08-09T21:15:16.125Z,93.33
2022-08-09T21:18:22.560Z,93.98
2022-08-09T21:20:32.341Z,93.92
2022-08-09T21:23:00.941Z,94.52
2022-08-09T21:25:53.949Z,95.10
2022-08-09T21:28:34.417Z,95.05
2022-08-09T21:31:18.221Z,95.31
2022-08-09T21:33:50.576Z,95.44
2022-08-09T21:36:27.875Z,95.76
2022-08-09T21:38:59.422Z,95.98
2022-08-09T21:41:59.786Z,96.04
2022-08-09T21:44:32.865Z,95.70
2022-08-09T21:47:07.735Z,96.23
2022-08-09T21:49:43.300Z,95.87
2022-08-09T21:52:14.970Z,95.75
2022-08-09T21:54:59.327Z,96.24
2022-08-09T21:57:39.560Z,96.64
2022-08-09T22:00:36.028Z,97.23
2022-08-09T22:03:19.118Z,98.30
2022-08-09T22:05:54.091Z,97.81
2022-08-09T22:08:23.096Z,97.99
2022-08-09T22:11:04.837Z,98.40
2022-08-09T22:13:43.312Z,98.32
2022-08-09T22:16:11.983Z,98.54
2022-08-09T22:18:52.295Z,98.16
2022-08-09T22:21:44.789Z,98.30
2022-08-09T22:24:17.297Z,98.68
2022-08-09T22:26:51.819Z,97.89
2022-08-09T22:29:26.864Z,97.75
2022-08-09T22:31:59.283Z,97.22
2022-08-09T22:34:27.070Z,97.14
2022-08-09T22:36:56.005Z,96.46
2022-08-09T22:39:57.098Z,96.47
2022-08-09T22:42:22.242Z,95.92
2022-08-09T22:45:11.519Z,95.62
2022-08-09T22:48:10.455Z,95.69
2022-08-09T22:50:29.876Z,94.88
2022-08-09T22:52:58.647Z,94.77
2022-08-09T22:55:39.789Z,94.61
2022-08-09T22:58:20.243Z,94.41
2022-08-09T23:00:59.547Z,94.44
2022-08-09T23:04:02.789Z,94.56
2022-08-09T23:06:14.471Z,94.57
2022-08-09T23:08:56.746Z,94.29
2022-08-09T23:11:23.767Z,93.96
2022-08-09T23:13:53.633Z,93.42
2022-08-09T23:16:23.189Z,93.53
2022-08-09T23:18:50.348Z,93.51
2022-08-09T23:21:25.097Z,93.16
2022-08-09T23:24:05.224Z,93.20
2022-08-09T23:26:32.923Z,93.36
2022-08-09T23:29:00.083Z,93.50
2022-08-09T23:31:27.224Z,93.56
2022-08-09T23:33:54.307Z,93.22
2022-08-09T23:36:21.377Z,93.60
2022-08-09T23:38:49.535Z,93.74
2022-08-09T23:41:28.048Z,94.27
2022-08-09T23:44:01.986Z,94.85
2022-08-09T23:46:29.985Z,95.02
2022-08-09T23:48:58.371Z,95.18
2022-08-09T23:51:26.212Z,95.42
2022-08-09T23:53:55.201Z,95.75
2022-08-09T23:56:52.145Z,96.43
2022-08-09T23:59:14.172Z,97.00
